createdAt,value
2018-07-06T00:02:54.614Z,23.10
2018-07-06T00:06:12.654Z,23.00
2018-07-06T00:09:31.940Z,23.00
2018-07-06T00:12:50.702Z,23.10
2018-07-06T00:16:09.577Z,23.10
2018-07-06T00:19:27.823Z,23.00
2018-07-06T00:22:45.964Z,23.00
2018-07-06T00:26:05.771Z,22.90
2018-07-06T00:29:24.494Z,22.90
2018-07-06T00:32:43.376Z,22.80
2018-07-06T00:36:01.757Z,22.80
2018-07-06T00:39:19.942Z,22.80
2018-07-06T00:42:41.168Z,22.80
2018-07-06T00:45:58.997Z,22.80
2018-07-06T00:49:16.698Z,22.80
2018-07-06T00:52:36.624Z,22.80
2018-07-06T00:55:54.772Z,22.80
2018-07-06T00:59:13.112Z,22.70
2018-07-06T01:02:31.708Z,22.70
2018-07-06T01:08:53.582Z,22.70
2018-07-06T01:13:18.592Z,22.70
2018-07-06T01:19:44.250Z,22.60
2018-07-06T01:23:03.748Z,22.70
2018-07-06T01:26:23.035Z,22.70
2018-07-06T01:29:41.068Z,22.70
2018-07-06T01:32:59.938Z,22.60
2018-07-06T01:36:17.767Z,22.60
2018-07-06T01:39:37.054Z,22.60
2018-07-06T01:42:55.980Z,22.60
2018-07-06T01:46:14.460Z,22.60
2018-07-06T01:49:32.828Z,22.60
2018-07-06T01:52:51.138Z,22.50
2018-07-06T01:59:14.399Z,22.50
2018-07-06T02:02:33.267Z,22.60
2018-07-06T02:05:52.554Z,22.60
2018-07-06T02:09:11.218Z,22.60
2018-07-06T02:12:30.818Z,22.50
2018-07-06T02:15:48.539Z,22.50
2018-07-06T02:19:06.447Z,22.50
2018-07-06T02:22:25.444Z,22.50
2018-07-06T02:25:43.690Z,22.50
2018-07-06T02:29:02.759Z,22.50
2018-07-06T02:32:20.803Z,22.50
2018-07-06T02:38:44.948Z,22.40
2018-07-06T02:42:06.025Z,22.50
2018-07-06T02:45:24.688Z,22.50
2018-07-06T02:48:43.448Z,22.50
2018-07-06T02:55:06.997Z,22.40
2018-07-06T02:58:24.814Z,22.40
2018-07-06T03:01:43.366Z,22.40
2018-07-06T03:05:01.931Z,22.40
2018-07-06T03:08:21.150Z,22.30
2018-07-06T03:11:38.741Z,22.30
2018-07-06T03:14:56.709Z,22.40
2018-07-06T03:18:16.154Z,22.30
2018-07-06T03:21:35.332Z,22.40
2018-07-06T03:24:54.207Z,22.40
2018-07-06T03:28:12.115Z,22.40
2018-07-06T03:31:29.929Z,22.30
2018-07-06T03:34:48.624Z,22.30
2018-07-06T03:41:12.691Z,22.30
2018-07-06T03:44:31.342Z,22.30
2018-07-06T03:47:49.694Z,22.30
2018-07-06T03:51:08.122Z,22.20
2018-07-06T03:54:27.222Z,22.20
2018-07-06T03:57:46.310Z,22.30
2018-07-06T04:01:04.971Z,22.30
2018-07-06T04:04:25.294Z,22.30
2018-07-06T04:07:44.374Z,22.30
2018-07-06T04:11:02.408Z,22.30
2018-07-06T04:14:22.318Z,22.20
2018-07-06T04:17:40.777Z,22.20
2018-07-06T04:20:59.022Z,22.20
2018-07-06T04:24:17.667Z,22.20
2018-07-06T04:27:35.788Z,22.20
2018-07-06T04:30:54.544Z,22.20
2018-07-06T04:34:12.622Z,22.20
2018-07-06T04:37:30.031Z,22.30
2018-07-06T04:40:49.210Z,22.20
2018-07-06T04:44:07.203Z,22.20
2018-07-06T04:47:25.177Z,22.20
2018-07-06T04:50:42.650Z,22.20
2018-07-06T04:54:00.210Z,22.20
2018-07-06T04:57:18.547Z,22.20
2018-07-06T05:00:37.314Z,22.30
2018-07-06T05:03:56.015Z,22.30
2018-07-06T05:07:14.844Z,22.30
2018-07-06T05:10:33.558Z,22.20
2018-07-06T05:13:53.003Z,22.20
2018-07-06T05:17:10.880Z,22.20
2018-07-06T05:20:30.319Z,22.20
2018-07-06T05:23:50.340Z,22.20
2018-07-06T05:27:10.370Z,22.20
2018-07-06T05:30:28.742Z,22.20
2018-07-06T05:33:47.581Z,22.20
2018-07-06T05:37:06.767Z,22.20
2018-07-06T05:40:24.431Z,22.20
2018-07-06T05:43:43.616Z,22.20
2018-07-06T05:47:03.170Z,22.10
2018-07-06T05:50:21.201Z,22.10
2018-07-06T05:53:39.464Z,22.10
2018-07-06T05:56:57.273Z,22.10
2018-07-06T06:00:16.037Z,22.10
2018-07-06T06:03:36.688Z,22.00
2018-07-06T06:06:54.928Z,22.00
2018-07-06T06:10:04.710Z,22.10
2018-07-06T06:13:14.907Z,22.10
2018-07-06T06:19:21.915Z,22.00
2018-07-06T06:22:30.625Z,22.00
2018-07-06T06:25:40.253Z,22.00
2018-07-06T06:28:49.411Z,22.00
2018-07-06T06:31:58.152Z,22.00
2018-07-06T06:35:08.046Z,22.00
2018-07-06T06:38:17.925Z,21.90
2018-07-06T06:44:26.003Z,22.00
2018-07-06T06:47:34.707Z,22.00
2018-07-06T06:50:45.551Z,22.00
2018-07-06T06:53:54.719Z,22.00
2018-07-06T06:57:04.268Z,21.90
2018-07-06T07:00:12.416Z,22.00
2018-07-06T07:03:23.443Z,21.90
2018-07-06T07:06:33.132Z,21.90
2018-07-06T07:09:44.789Z,21.90
2018-07-06T07:12:53.115Z,21.90
2018-07-06T07:16:02.681Z,21.90
2018-07-06T07:19:10.480Z,21.90
2018-07-06T07:22:20.484Z,21.90
2018-07-06T07:25:29.378Z,21.90
2018-07-06T07:28:38.676Z,21.90
2018-07-06T07:31:47.316Z,22.00
2018-07-06T07:34:55.741Z,22.00
2018-07-06T07:38:04.430Z,21.90
2018-07-06T07:41:13.006Z,21.90
2018-07-06T07:44:21.735Z,21.90
2018-07-06T07:47:30.173Z,21.90
2018-07-06T07:50:49.115Z,21.80
2018-07-06T07:54:07.349Z,21.80
2018-07-06T07:57:15.351Z,21.80
2018-07-06T08:00:25.581Z,21.90
2018-07-06T08:03:33.563Z,21.90
2018-07-06T08:06:42.053Z,21.90
2018-07-06T08:09:51.772Z,21.90
2018-07-06T08:13:00.049Z,21.90
2018-07-06T08:16:08.538Z,21.80
2018-07-06T08:19:18.133Z,21.90
2018-07-06T08:22:27.923Z,21.80
2018-07-06T08:25:37.379Z,21.80
2018-07-06T08:28:47.279Z,21.80
2018-07-06T08:31:55.705Z,21.80
2018-07-06T08:35:13.633Z,21.80
2018-07-06T08:38:22.690Z,21.80
2018-07-06T08:41:32.159Z,21.80
2018-07-06T08:44:40.729Z,21.80
2018-07-06T08:47:50.157Z,21.80
2018-07-06T08:50:58.788Z,21.80
2018-07-06T08:54:07.006Z,21.80
2018-07-06T08:57:15.036Z,21.80
2018-07-06T09:00:23.920Z,21.80
2018-07-06T09:03:33.325Z,21.80
2018-07-06T09:06:41.954Z,21.70
2018-07-06T09:09:51.121Z,21.70
2018-07-06T09:13:00.807Z,21.80
2018-07-06T09:16:10.900Z,21.80
2018-07-06T09:19:19.527Z,21.70
2018-07-06T09:25:28.160Z,21.70
2018-07-06T09:28:38.072Z,21.70
2018-07-06T09:31:46.265Z,21.70
2018-07-06T09:34:55.698Z,21.80
2018-07-06T09:38:06.524Z,21.80
2018-07-06T09:41:16.098Z,21.70
2018-07-06T09:44:26.076Z,21.70
2018-07-06T09:47:34.830Z,21.70
2018-07-06T09:50:44.717Z,21.70
2018-07-06T09:53:55.437Z,21.70
2018-07-06T09:57:04.389Z,21.70
2018-07-06T10:00:15.320Z,21.70
2018-07-06T10:03:24.064Z,21.70
2018-07-06T10:06:32.526Z,21.70
2018-07-06T10:09:41.021Z,21.70
2018-07-06T10:12:50.692Z,21.70
2018-07-06T10:16:00.267Z,21.80
2018-07-06T10:19:09.533Z,21.70
2018-07-06T10:22:17.955Z,21.70
2018-07-06T10:25:27.217Z,21.70
2018-07-06T10:28:46.607Z,21.70
2018-07-06T10:33:05.809Z,21.70
2018-07-06T10:36:13.959Z,21.70
2018-07-06T10:39:24.071Z,21.70
2018-07-06T10:42:32.584Z,21.60
2018-07-06T10:45:40.175Z,21.60
2018-07-06T10:48:49.127Z,21.80
2018-07-06T10:51:57.337Z,21.70
2018-07-06T10:55:04.725Z,21.70
2018-07-06T10:58:13.929Z,21.70
2018-07-06T11:01:24.288Z,21.70
2018-07-06T11:04:33.227Z,21.70
2018-07-06T11:07:42.446Z,21.70
2018-07-06T11:10:50.610Z,21.70
2018-07-06T11:13:59.484Z,21.70
2018-07-06T11:17:10.243Z,21.80
2018-07-06T11:20:21.420Z,21.70
2018-07-06T11:23:31.058Z,21.70
2018-07-06T11:26:39.242Z,21.80
2018-07-06T11:29:47.842Z,21.80
2018-07-06T11:32:55.687Z,21.80
2018-07-06T11:39:05.629Z,21.90
2018-07-06T11:42:14.194Z,21.90
2018-07-06T11:48:24.288Z,21.90
2018-07-06T11:51:33.028Z,21.90
2018-07-06T11:57:40.665Z,21.80
2018-07-06T12:00:48.666Z,21.90
2018-07-06T12:03:57.789Z,21.90
2018-07-06T12:07:07.949Z,21.90
2018-07-06T12:10:17.317Z,22.00
2018-07-06T12:13:29.287Z,22.00
2018-07-06T12:16:37.856Z,22.00
2018-07-06T12:19:47.080Z,22.00
2018-07-06T12:22:55.088Z,22.00
2018-07-06T12:26:04.767Z,21.90
2018-07-06T12:29:12.942Z,22.00
2018-07-06T12:32:21.205Z,22.00
2018-07-06T12:35:30.568Z,21.90
2018-07-06T12:38:39.211Z,22.00
2018-07-06T12:41:47.506Z,21.90
2018-07-06T12:44:58.203Z,21.90
2018-07-06T12:51:07.471Z,22.00
2018-07-06T12:54:15.114Z,22.00
2018-07-06T12:57:24.113Z,22.00
2018-07-06T13:00:32.538Z,21.90
2018-07-06T13:03:41.478Z,21.90
2018-07-06T13:06:50.639Z,21.90
2018-07-06T13:09:59.532Z,21.90
2018-07-06T13:13:08.327Z,21.90
2018-07-06T13:16:17.435Z,21.90
2018-07-06T13:19:26.432Z,21.90
2018-07-06T13:22:35.428Z,22.00
2018-07-06T13:25:45.154Z,22.00
2018-07-06T13:28:55.043Z,22.00
2018-07-06T13:38:01.636Z,21.90
2018-07-06T13:41:11.930Z,21.90
2018-07-06T13:44:20.255Z,21.90
2018-07-06T13:50:43.380Z,21.90
2018-07-06T13:53:52.632Z,21.90
2018-07-06T13:57:01.270Z,21.90
2018-07-06T14:00:10.108Z,21.90
2018-07-06T14:03:18.536Z,21.90
2018-07-06T14:06:27.269Z,22.00
2018-07-06T14:09:35.604Z,22.00
2018-07-06T14:12:44.020Z,22.00
2018-07-06T14:15:53.280Z,21.90
2018-07-06T14:19:02.121Z,21.90
2018-07-06T14:22:10.153Z,21.90
2018-07-06T14:25:19.395Z,21.90
2018-07-06T14:28:28.672Z,21.90
2018-07-06T14:31:37.077Z,21.90
2018-07-06T14:34:46.337Z,21.90
2018-07-06T14:37:56.681Z,21.90
2018-07-06T14:41:06.913Z,21.90
2018-07-06T14:44:16.213Z,21.90
2018-07-06T14:47:25.055Z,21.90
2018-07-06T14:50:33.996Z,21.90
2018-07-06T14:53:43.050Z,21.90
2018-07-06T14:56:50.746Z,21.90
2018-07-06T15:00:00.009Z,21.90
2018-07-06T15:03:09.688Z,21.90
2018-07-06T15:06:18.011Z,21.90
2018-07-06T15:09:25.703Z,21.90
2018-07-06T15:12:34.345Z,21.90
2018-07-06T15:15:43.278Z,21.90
2018-07-06T15:18:53.310Z,21.90
2018-07-06T15:22:00.662Z,21.90
2018-07-06T15:25:09.076Z,21.90
2018-07-06T15:31:23.280Z,21.90
2018-07-06T15:34:33.106Z,21.90
2018-07-06T15:37:41.660Z,21.90
2018-07-06T15:40:50.861Z,21.90
2018-07-06T15:43:59.883Z,21.90
2018-07-06T15:47:08.357Z,21.90
2018-07-06T15:50:16.316Z,21.80
2018-07-06T15:53:25.743Z,21.80
2018-07-06T15:56:36.149Z,21.80
2018-07-06T15:59:46.354Z,21.90
2018-07-06T16:02:57.393Z,21.90
2018-07-06T16:06:05.756Z,21.90
2018-07-06T16:09:14.972Z,21.90
2018-07-06T16:12:23.798Z,21.90
2018-07-06T16:15:31.925Z,22.00
2018-07-06T16:18:42.643Z,21.90
2018-07-06T16:21:50.901Z,21.90
2018-07-06T16:24:59.595Z,21.90
2018-07-06T16:28:08.546Z,21.90
2018-07-06T16:31:17.062Z,21.90
2018-07-06T16:34:25.083Z,21.90
2018-07-06T16:37:34.350Z,21.90
2018-07-06T16:40:42.356Z,21.80
2018-07-06T16:43:50.784Z,21.80
2018-07-06T16:47:00.355Z,21.80
2018-07-06T16:50:08.880Z,21.80
2018-07-06T16:53:18.361Z,21.90
2018-07-06T16:56:27.828Z,21.90
2018-07-06T16:59:35.799Z,21.80
2018-07-06T17:02:44.114Z,21.80
2018-07-06T17:05:53.833Z,21.90
2018-07-06T17:09:03.616Z,22.00
2018-07-06T17:12:12.359Z,22.10
2018-07-06T17:15:20.886Z,22.30
2018-07-06T17:18:29.626Z,22.50
2018-07-06T17:21:39.408Z,22.60
2018-07-06T17:24:47.791Z,22.70
2018-07-06T17:27:57.400Z,22.80
2018-07-06T17:31:05.774Z,22.90
2018-07-06T17:34:13.840Z,23.00
2018-07-06T17:37:22.160Z,23.10
2018-07-06T17:40:30.698Z,23.10
2018-07-06T17:43:40.150Z,23.20
2018-07-06T17:46:49.108Z,23.30
2018-07-06T17:49:57.856Z,23.30
2018-07-06T17:56:09.370Z,23.40
2018-07-06T17:59:19.049Z,23.50
2018-07-06T18:02:28.734Z,23.50
2018-07-06T18:05:37.980Z,23.60
2018-07-06T18:08:47.112Z,23.70
2018-07-06T18:11:56.085Z,23.70
2018-07-06T18:15:04.726Z,23.80
2018-07-06T18:18:13.360Z,23.80
2018-07-06T18:21:21.368Z,23.80
2018-07-06T18:24:30.036Z,23.80
2018-07-06T18:27:38.656Z,23.90
2018-07-06T18:30:46.854Z,23.90
2018-07-06T18:33:57.594Z,24.00
2018-07-06T18:37:06.698Z,24.00
2018-07-06T18:40:15.679Z,24.10
2018-07-06T18:43:25.357Z,24.10
2018-07-06T18:46:33.766Z,24.10
2018-07-06T18:49:43.046Z,24.10
2018-07-06T18:52:52.413Z,24.20
2018-07-06T18:56:01.652Z,24.10
2018-07-06T18:59:10.102Z,24.20
2018-07-06T19:02:18.210Z,24.20
2018-07-06T19:05:27.676Z,24.20
2018-07-06T19:08:35.798Z,24.30
2018-07-06T19:11:44.297Z,24.30
2018-07-06T19:17:53.651Z,24.40
2018-07-06T19:21:06.442Z,24.40
2018-07-06T19:24:14.359Z,24.40
2018-07-06T19:27:21.648Z,24.50
2018-07-06T19:30:30.272Z,24.40
2018-07-06T19:33:38.703Z,24.40
2018-07-06T19:36:47.023Z,24.50
2018-07-06T19:39:56.702Z,24.60
2018-07-06T19:43:05.657Z,24.60
2018-07-06T19:46:14.182Z,24.60
2018-07-06T19:49:22.924Z,24.60
2018-07-06T19:52:32.594Z,24.60
2018-07-06T19:55:42.158Z,24.60
2018-07-06T19:58:50.704Z,24.60
2018-07-06T20:01:59.598Z,24.60
2018-07-06T20:05:07.759Z,24.70
2018-07-06T20:08:16.441Z,24.70
2018-07-06T20:11:26.490Z,24.70
2018-07-06T20:14:35.120Z,24.70
2018-07-06T20:17:45.640Z,24.70
2018-07-06T20:23:53.883Z,24.70
2018-07-06T20:27:02.092Z,24.70
2018-07-06T20:30:12.429Z,24.70
2018-07-06T20:33:22.123Z,24.70
2018-07-06T20:36:30.973Z,24.70
2018-07-06T20:39:40.540Z,24.70
2018-07-06T20:45:48.100Z,24.80
2018-07-06T20:48:57.106Z,24.80
2018-07-06T20:52:06.414Z,24.80
2018-07-06T20:55:15.464Z,24.80
2018-07-06T20:58:22.949Z,24.70
2018-07-06T21:01:31.480Z,24.80
2018-07-06T21:04:41.688Z,24.80
2018-07-06T21:07:51.780Z,24.70
2018-07-06T21:11:01.453Z,24.80
2018-07-06T21:14:10.831Z,24.90
2018-07-06T21:17:19.974Z,24.90
2018-07-06T21:20:28.815Z,24.90
2018-07-06T21:23:38.496Z,24.90
2018-07-06T21:26:47.559Z,24.90
2018-07-06T21:29:56.127Z,24.90
2018-07-06T21:33:05.061Z,24.90
2018-07-06T21:36:16.692Z,24.90
2018-07-06T21:39:25.328Z,24.90
2018-07-06T21:45:34.866Z,24.90
2018-07-06T21:48:43.603Z,24.90
2018-07-06T21:54:51.050Z,24.90
2018-07-06T21:58:00.089Z,24.90
2018-07-06T22:01:08.007Z,25.00
2018-07-06T22:04:16.855Z,25.00
2018-07-06T22:07:26.128Z,25.00
2018-07-06T22:10:35.691Z,24.90
2018-07-06T22:13:44.222Z,25.00
2018-07-06T22:16:52.536Z,25.00
2018-07-06T22:20:01.180Z,24.90
2018-07-06T22:23:10.751Z,25.00
2018-07-06T22:26:20.636Z,25.10
2018-07-06T22:29:29.540Z,25.00
2018-07-06T22:32:38.640Z,25.10
2018-07-06T22:35:47.960Z,25.10
2018-07-06T22:38:58.410Z,25.10
2018-07-06T22:42:06.743Z,25.10
2018-07-06T22:45:15.822Z,25.10
2018-07-06T22:48:25.046Z,25.10
2018-07-06T22:51:33.052Z,25.00
2018-07-06T22:54:42.978Z,25.10
2018-07-06T22:57:51.366Z,25.10
2018-07-06T23:01:00.068Z,25.10
2018-07-06T23:04:09.691Z,25.10
2018-07-06T23:07:19.669Z,25.10
2018-07-06T23:10:29.880Z,25.10
2018-07-06T23:13:38.135Z,25.10
2018-07-06T23:16:46.602Z,25.10
2018-07-06T23:19:56.192Z,25.10
2018-07-06T23:23:36.996Z,25.20
2018-07-06T23:26:46.048Z,25.20
2018-07-06T23:29:55.098Z,25.10
2018-07-06T23:33:04.782Z,25.10
2018-07-06T23:36:14.001Z,25.20
2018-07-06T23:39:23.928Z,25.10
2018-07-06T23:42:32.298Z,25.20
2018-07-06T23:45:40.440Z,25.10
2018-07-06T23:48:48.470Z,25.10
2018-07-06T23:51:58.356Z,25.10
2018-07-06T23:55:06.994Z,25.20
2018-07-06T23:58:17.088Z,25.20
